createdAt,value
2017-09-03T00:08:05.244Z,0
2017-09-03T00:18:20.011Z,0
2017-09-03T00:28:34.070Z,0
2017-09-03T00:38:47.811Z,0
2017-09-03T00:49:01.970Z,0
2017-09-03T00:59:17.654Z,0
2017-09-03T01:09:33.207Z,0
2017-09-03T01:19:47.531Z,0
2017-09-03T01:30:02.475Z,0
2017-09-03T01:40:17.155Z,0
2017-09-03T01:50:32.122Z,0
2017-09-03T02:00:46.331Z,0
2017-09-03T02:11:01.478Z,0
2017-09-03T02:21:15.560Z,0
2017-09-03T02:31:30.074Z,0
2017-09-03T02:41:44.950Z,0
2017-09-03T02:51:58.872Z,0
2017-09-03T03:02:12.621Z,0
2017-09-03T03:12:28.195Z,0
2017-09-03T03:22:41.933Z,0
2017-09-03T03:32:57.619Z,0
2017-09-03T03:43:11.528Z,0
2017-09-03T03:53:26.916Z,0
2017-09-03T04:03:41.082Z,0
2017-09-03T04:13:56.348Z,4
2017-09-03T04:24:11.150Z,20
2017-09-03T04:34:25.079Z,96
2017-09-03T04:44:39.315Z,304
2017-09-03T04:54:54.331Z,728
2017-09-03T05:05:09.050Z,1324
2017-09-03T05:15:22.770Z,2052
2017-09-03T05:25:37.346Z,2808
2017-09-03T05:35:51.939Z,3464
2017-09-03T05:46:06.402Z,4196
2017-09-03T05:56:21.486Z,5092
2017-09-03T06:06:35.619Z,5812
2017-09-03T06:16:50.809Z,6604
2017-09-03T06:27:05.924Z,7588
2017-09-03T06:37:20.190Z,8284
2017-09-03T06:47:34.684Z,9868
2017-09-03T06:57:49.241Z,11128
2017-09-03T07:08:04.243Z,10836
2017-09-03T07:18:19.397Z,11688
2017-09-03T07:28:34.064Z,15408
2017-09-03T07:38:49.156Z,32480
2017-09-03T07:49:03.230Z,32256
2017-09-03T07:59:17.741Z,34400
2017-09-03T08:09:31.732Z,34464
2017-09-03T08:19:45.714Z,37568
2017-09-03T08:30:00.656Z,39584
2017-09-03T08:40:15.120Z,45056
2017-09-03T08:50:30.159Z,47936
2017-09-03T09:00:44.447Z,49952
2017-09-03T09:10:59.536Z,48384
2017-09-03T09:21:14.118Z,49472
2017-09-03T09:31:29.100Z,49888
2017-09-03T09:41:44.413Z,54656
2017-09-03T09:51:59.716Z,59840
2017-09-03T10:02:13.968Z,66304
2017-09-03T10:12:29.697Z,73536
2017-09-03T10:22:43.608Z,25920
2017-09-03T10:32:57.797Z,80960
2017-09-03T10:43:12.587Z,79808
2017-09-03T10:53:26.809Z,88480
2017-09-03T11:03:41.034Z,70272
2017-09-03T11:13:55.665Z,73312
2017-09-03T11:24:10.047Z,80320
2017-09-03T11:34:25.731Z,63904
2017-09-03T11:44:40.697Z,82816
2017-09-03T11:54:54.687Z,79744
2017-09-03T12:05:08.669Z,29376
2017-09-03T12:15:24.540Z,24096
2017-09-03T12:25:40.257Z,19200
2017-09-03T12:35:54.457Z,50048
2017-09-03T12:46:10.048Z,75552
2017-09-03T12:56:24.351Z,74528
2017-09-03T13:06:40.074Z,75776
2017-09-03T13:16:55.885Z,75040
2017-09-03T13:27:09.953Z,72416
2017-09-03T13:37:25.144Z,72064
2017-09-03T13:47:40.226Z,67552
2017-09-03T13:57:55.654Z,62080
2017-09-03T14:08:09.801Z,60576
2017-09-03T14:18:25.594Z,59200
2017-09-03T14:28:40.423Z,55744
2017-09-03T14:38:54.401Z,22208
2017-09-03T14:49:08.950Z,42656
2017-09-03T14:59:23.628Z,36288
2017-09-03T15:09:39.078Z,46144
2017-09-03T15:19:53.839Z,25984
2017-09-03T15:30:08.967Z,20672
2017-09-03T15:40:22.961Z,21248
2017-09-03T15:50:38.318Z,20832
2017-09-03T16:00:53.507Z,21856
2017-09-03T16:11:07.545Z,18464
2017-09-03T16:21:21.944Z,21280
2017-09-03T16:31:36.309Z,14268
2017-09-03T16:41:52.182Z,13028
2017-09-03T16:52:07.022Z,9052
2017-09-03T17:02:21.071Z,7644
2017-09-03T17:12:35.455Z,6500
2017-09-03T17:22:49.282Z,5016
2017-09-03T17:33:04.033Z,3796
2017-09-03T17:43:19.346Z,2536
2017-09-03T17:53:33.945Z,1428
2017-09-03T18:03:47.887Z,656
2017-09-03T18:14:02.230Z,256
2017-09-03T18:24:17.327Z,84
2017-09-03T18:34:31.969Z,16
2017-09-03T18:44:46.621Z,4
2017-09-03T18:55:01.805Z,0
2017-09-03T19:05:16.254Z,0
2017-09-03T19:15:31.274Z,0
2017-09-03T19:25:45.061Z,0
2017-09-03T19:35:58.860Z,0
2017-09-03T19:46:14.082Z,0
2017-09-03T19:56:28.143Z,0
2017-09-03T20:06:42.097Z,0
2017-09-03T20:16:56.322Z,0
2017-09-03T20:27:10.955Z,0
2017-09-03T20:37:25.523Z,0
2017-09-03T20:47:40.918Z,0
2017-09-03T20:57:56.081Z,0
2017-09-03T21:08:09.847Z,0
2017-09-03T21:18:25.308Z,0
2017-09-03T21:28:39.707Z,0
2017-09-03T21:38:54.448Z,0
2017-09-03T21:49:08.212Z,0
2017-09-03T21:59:23.005Z,0
2017-09-03T22:09:37.395Z,0
2017-09-03T22:19:52.327Z,0
2017-09-03T22:30:06.315Z,0
2017-09-03T22:40:21.066Z,0
2017-09-03T22:50:34.956Z,0
2017-09-03T23:00:49.683Z,0
2017-09-03T23:11:04.604Z,0
2017-09-03T23:21:19.586Z,0
2017-09-03T23:31:35.001Z,0
2017-09-03T23:41:48.156Z,0
2017-09-03T23:52:02.224Z,0
